createdAt,value
2019-06-07T00:00:52.076Z,16.20
2019-06-07T00:03:29.729Z,16.10
2019-06-07T00:05:53.092Z,16.00
2019-06-07T00:08:28.385Z,15.90
2019-06-07T00:10:54.110Z,15.90
2019-06-07T00:13:26.742Z,16.00
2019-06-07T00:15:56.410Z,16.10
2019-06-07T00:18:26.360Z,16.20
2019-06-07T00:20:56.731Z,16.30
2019-06-07T00:23:26.415Z,16.30
2019-06-07T00:25:57.817Z,16.40
2019-06-07T00:28:27.449Z,16.20
2019-06-07T00:30:57.116Z,16.20
2019-06-07T00:33:28.498Z,16.00
2019-06-07T00:36:00.537Z,15.90
2019-06-07T00:38:30.174Z,15.70
2019-06-07T00:40:59.854Z,15.60
2019-06-07T00:43:31.013Z,15.50
2019-06-07T00:46:02.102Z,15.60
2019-06-07T00:48:32.819Z,15.70
2019-06-07T00:51:02.916Z,15.80
2019-06-07T00:53:32.849Z,15.80
2019-06-07T00:56:02.715Z,15.80
2019-06-07T00:58:32.585Z,15.70
2019-06-07T01:01:02.187Z,15.60
2019-06-07T01:03:31.817Z,15.60
2019-06-07T01:06:01.422Z,15.50
2019-06-07T01:08:31.052Z,15.60
2019-06-07T01:11:00.732Z,15.70
2019-06-07T01:13:30.288Z,15.80
2019-06-07T01:15:59.914Z,15.90
2019-06-07T01:18:42.885Z,15.90
2019-06-07T01:21:02.513Z,15.80
2019-06-07T01:24:05.436Z,15.80
2019-06-07T01:26:03.503Z,15.80
2019-06-07T01:28:33.125Z,15.80
2019-06-07T01:31:02.726Z,15.80
2019-06-07T01:33:50.395Z,15.70
2019-06-07T01:36:03.775Z,15.70
2019-06-07T01:38:33.379Z,15.60
2019-06-07T01:41:03.044Z,15.70
2019-06-07T01:43:32.674Z,15.60
2019-06-07T01:46:02.361Z,15.60
2019-06-07T01:48:49.112Z,15.70
2019-06-07T01:51:06.080Z,15.70
2019-06-07T01:53:35.708Z,15.70
2019-06-07T01:56:05.612Z,15.50
2019-06-07T01:58:35.232Z,15.30
2019-06-07T02:01:04.916Z,15.10
2019-06-07T02:03:34.546Z,15.00
2019-06-07T02:06:04.380Z,15.00
2019-06-07T02:08:34.543Z,15.10
2019-06-07T02:11:05.898Z,15.30
2019-06-07T02:13:35.615Z,15.20
2019-06-07T02:16:07.048Z,15.20
2019-06-07T02:18:36.777Z,15.10
2019-06-07T02:24:02.149Z,15.00
2019-06-07T02:26:32.634Z,15.20
2019-06-07T02:29:02.457Z,15.20
2019-06-07T02:31:38.622Z,15.40
2019-06-07T02:34:03.413Z,15.50
2019-06-07T02:36:40.829Z,15.60
2019-06-07T02:39:06.650Z,15.60
2019-06-07T02:41:40.028Z,15.50
2019-06-07T02:44:08.299Z,15.40
2019-06-07T02:46:46.838Z,15.40
2019-06-07T02:49:09.530Z,15.40
2019-06-07T02:51:41.687Z,15.40
2019-06-07T02:54:13.354Z,15.30
2019-06-07T02:56:56.155Z,15.20
2019-06-07T02:59:14.395Z,15.20
2019-06-07T03:01:44.773Z,15.20
2019-06-07T03:04:17.190Z,15.20
2019-06-07T03:06:50.205Z,15.30
2019-06-07T03:09:20.140Z,15.30
2019-06-07T03:11:53.943Z,15.20
2019-06-07T03:14:26.317Z,15.10
2019-06-07T03:17:02.381Z,15.00
2019-06-07T03:19:37.767Z,15.00
2019-06-07T03:22:07.931Z,15.10
2019-06-07T03:24:41.129Z,15.20
2019-06-07T03:27:32.683Z,15.30
2019-06-07T03:29:41.435Z,15.30
2019-06-07T03:32:11.276Z,15.40
2019-06-07T03:34:43.552Z,15.40
2019-06-07T03:37:13.427Z,15.40
2019-06-07T03:39:45.832Z,15.40
2019-06-07T03:42:17.099Z,15.30
2019-06-07T03:44:46.697Z,15.10
2019-06-07T03:47:16.329Z,15.00
2019-06-07T03:49:45.941Z,15.10
2019-06-07T03:52:15.610Z,15.10
2019-06-07T03:54:45.213Z,15.20
2019-06-07T03:57:14.886Z,15.10
2019-06-07T03:59:46.149Z,15.20
2019-06-07T04:02:15.892Z,15.30
2019-06-07T04:04:45.499Z,15.50
2019-06-07T04:07:15.075Z,15.50
2019-06-07T04:09:44.702Z,15.50
2019-06-07T04:12:14.300Z,15.50
2019-06-07T04:14:45.577Z,15.60
2019-06-07T04:17:15.165Z,15.60
2019-06-07T04:19:44.788Z,15.40
2019-06-07T04:22:14.460Z,15.30
2019-06-07T04:24:44.083Z,15.20
2019-06-07T04:27:13.774Z,15.20
2019-06-07T04:30:05.349Z,15.20
2019-06-07T04:32:19.204Z,15.30
2019-06-07T04:34:48.943Z,15.30
2019-06-07T04:37:19.343Z,15.40
2019-06-07T04:39:53.848Z,15.50
2019-06-07T04:42:27.017Z,15.60
2019-06-07T04:45:00.098Z,15.80
2019-06-07T04:47:33.804Z,16.10
2019-06-07T04:50:05.093Z,16.20
2019-06-07T04:52:36.915Z,16.40
2019-06-07T04:55:07.605Z,16.80
2019-06-07T04:57:39.501Z,17.30
2019-06-07T05:00:46.189Z,17.80
2019-06-07T05:02:43.082Z,18.20
2019-06-07T05:05:11.882Z,18.50
2019-06-07T05:07:46.135Z,18.80
2019-06-07T05:10:14.724Z,19.20
2019-06-07T05:12:44.535Z,19.40
2019-06-07T05:15:14.283Z,19.70
2019-06-07T05:17:45.211Z,20.00
2019-06-07T05:20:16.541Z,20.20
2019-06-07T05:22:46.268Z,20.50
2019-06-07T05:25:16.841Z,20.60
2019-06-07T05:27:47.109Z,20.70
2019-06-07T05:33:01.908Z,21.00
2019-06-07T05:35:33.125Z,21.20
2019-06-07T05:38:03.042Z,21.40
2019-06-07T05:40:43.850Z,21.60
2019-06-07T05:43:26.959Z,21.60
2019-06-07T05:45:56.704Z,21.60
2019-06-07T05:48:26.852Z,21.70
2019-06-07T05:50:58.191Z,21.70
2019-06-07T05:53:27.999Z,22.00
2019-06-07T05:55:58.794Z,22.20
2019-06-07T05:58:30.376Z,22.40
2019-06-07T06:01:40.819Z,22.60
2019-06-07T06:03:31.325Z,22.80
2019-06-07T06:06:03.620Z,23.00
2019-06-07T06:08:37.511Z,23.00
2019-06-07T06:11:04.701Z,22.80
2019-06-07T06:13:34.450Z,22.80
2019-06-07T06:16:04.284Z,22.80
2019-06-07T06:18:38.020Z,23.00
2019-06-07T06:21:19.166Z,23.30
2019-06-07T06:23:43.379Z,23.50
2019-06-07T06:26:13.555Z,23.80
2019-06-07T06:28:45.254Z,23.80
2019-06-07T06:31:14.784Z,23.80
2019-06-07T06:33:45.207Z,23.80
2019-06-07T06:36:15.772Z,23.90
2019-06-07T06:38:47.141Z,23.90
2019-06-07T06:41:17.135Z,23.90
2019-06-07T06:43:50.329Z,24.10
2019-06-07T06:46:38.220Z,24.20
2019-06-07T06:48:55.316Z,24.40
2019-06-07T06:51:23.995Z,24.50
2019-06-07T06:53:53.625Z,24.60
2019-06-07T06:56:24.374Z,24.60
2019-06-07T07:01:25.504Z,24.50
2019-06-07T07:04:11.382Z,24.60
2019-06-07T07:06:27.247Z,24.70
2019-06-07T07:08:58.598Z,24.60
2019-06-07T07:11:28.353Z,24.70
2019-06-07T07:14:00.873Z,24.80
2019-06-07T07:16:29.718Z,24.80
2019-06-07T07:18:59.317Z,24.80
2019-06-07T07:21:29.041Z,24.80
2019-06-07T07:24:20.550Z,24.80
2019-06-07T07:26:30.423Z,24.90
2019-06-07T07:29:00.185Z,25.00
2019-06-07T07:31:29.954Z,25.00
2019-06-07T07:34:28.256Z,25.00
2019-06-07T07:36:39.291Z,24.90
2019-06-07T07:39:07.205Z,24.80
2019-06-07T07:41:36.789Z,24.80
2019-06-07T07:44:07.922Z,24.90
2019-06-07T07:46:37.960Z,24.90
2019-06-07T07:49:09.178Z,24.80
2019-06-07T07:51:38.839Z,24.90
2019-06-07T07:54:11.230Z,24.90
2019-06-07T07:56:39.931Z,24.90
2019-06-07T07:59:09.679Z,25.00
2019-06-07T08:01:39.439Z,25.10
2019-06-07T08:04:09.087Z,25.00
2019-06-07T08:06:38.721Z,25.20
2019-06-07T08:09:10.787Z,25.20
2019-06-07T08:11:40.412Z,25.30
2019-06-07T08:14:10.060Z,25.30
2019-06-07T08:16:39.710Z,25.30
2019-06-07T08:19:09.346Z,25.20
2019-06-07T08:21:38.979Z,25.40
2019-06-07T08:24:08.730Z,25.40
2019-06-07T08:26:38.357Z,25.30
2019-06-07T08:29:08.044Z,25.50
2019-06-07T08:31:37.674Z,25.60
2019-06-07T08:34:07.379Z,25.50
2019-06-07T08:36:42.396Z,25.50
2019-06-07T08:39:09.160Z,25.30
2019-06-07T08:41:53.390Z,25.50
2019-06-07T08:44:23.450Z,25.70
2019-06-07T08:46:41.585Z,25.40
2019-06-07T08:49:11.213Z,25.60
2019-06-07T08:51:40.833Z,25.60
2019-06-07T08:54:22.157Z,25.90
2019-06-07T08:56:43.571Z,26.10
2019-06-07T08:59:13.549Z,26.30
2019-06-07T09:01:43.261Z,26.30
2019-06-07T09:04:12.862Z,26.30
2019-06-07T09:09:13.974Z,26.10
2019-06-07T09:11:43.704Z,26.20
2019-06-07T09:14:13.343Z,26.20
2019-06-07T09:16:43.015Z,26.20
2019-06-07T09:19:12.677Z,26.20
2019-06-07T09:21:42.243Z,26.50
2019-06-07T09:24:12.297Z,26.50
2019-06-07T09:26:42.028Z,26.60
2019-06-07T09:29:12.489Z,26.50
2019-06-07T09:31:52.422Z,26.40
2019-06-07T09:34:15.131Z,26.40
2019-06-07T09:36:45.094Z,26.50
2019-06-07T09:39:14.850Z,26.60
2019-06-07T09:41:49.647Z,26.60
2019-06-07T09:44:24.621Z,26.60
2019-06-07T09:47:08.405Z,26.60
2019-06-07T09:49:32.277Z,26.40
2019-06-07T09:51:51.818Z,26.40
2019-06-07T09:56:52.972Z,26.50
2019-06-07T09:59:22.611Z,26.70
2019-06-07T10:01:54.006Z,26.90
2019-06-07T10:04:31.226Z,27.20
2019-06-07T10:06:55.059Z,27.10
2019-06-07T10:11:56.544Z,27.10
2019-06-07T10:14:27.557Z,27.00
2019-06-07T10:16:58.694Z,27.10
2019-06-07T10:19:28.412Z,27.10
2019-06-07T10:21:59.143Z,27.20
2019-06-07T10:24:28.779Z,27.00
2019-06-07T10:26:59.598Z,27.00
2019-06-07T10:29:29.350Z,27.20
2019-06-07T10:32:00.060Z,27.10
2019-06-07T10:34:33.919Z,27.10
2019-06-07T10:37:08.763Z,27.10
2019-06-07T10:39:48.172Z,27.20
2019-06-07T10:42:07.789Z,27.10
2019-06-07T10:44:38.283Z,27.30
2019-06-07T10:47:08.246Z,27.20
2019-06-07T10:49:38.091Z,27.20
2019-06-07T10:52:08.577Z,27.20
2019-06-07T10:54:39.456Z,27.20
2019-06-07T10:57:12.142Z,27.20
2019-06-07T10:59:40.599Z,27.30
2019-06-07T11:02:11.923Z,27.20
2019-06-07T11:04:41.766Z,27.30
2019-06-07T11:07:12.066Z,27.30
2019-06-07T11:09:41.835Z,27.30
2019-06-07T11:12:12.528Z,27.40
2019-06-07T11:14:42.399Z,27.40
2019-06-07T11:17:13.411Z,27.40
2019-06-07T11:19:43.273Z,27.40
2019-06-07T11:22:14.177Z,27.20
2019-06-07T11:24:44.610Z,27.20
2019-06-07T11:27:16.429Z,27.10
2019-06-07T11:29:45.950Z,27.10
2019-06-07T11:32:15.636Z,27.00
2019-06-07T11:34:45.482Z,26.80
2019-06-07T11:37:16.102Z,27.00
2019-06-07T11:39:45.970Z,27.00
2019-06-07T11:42:15.803Z,27.20
2019-06-07T11:44:56.317Z,27.40
2019-06-07T11:47:16.748Z,27.30
2019-06-07T11:49:46.508Z,27.30
2019-06-07T11:52:17.694Z,27.30
2019-06-07T11:54:48.230Z,27.10
2019-06-07T11:57:17.955Z,26.80
2019-06-07T11:59:47.631Z,26.80
2019-06-07T12:02:17.676Z,26.90
2019-06-07T12:04:47.468Z,27.00
2019-06-07T12:07:19.802Z,27.00
2019-06-07T12:09:56.321Z,27.10
2019-06-07T12:12:20.659Z,27.00
2019-06-07T12:14:50.503Z,27.00
2019-06-07T12:17:20.236Z,26.90
2019-06-07T12:19:49.852Z,26.90
2019-06-07T12:22:20.037Z,26.80
2019-06-07T12:24:49.837Z,27.00
2019-06-07T12:27:20.785Z,27.20
2019-06-07T12:29:50.475Z,27.60
2019-06-07T12:32:21.466Z,27.90
2019-06-07T12:34:51.283Z,27.90
2019-06-07T12:37:25.463Z,27.90
2019-06-07T12:39:52.225Z,27.70
2019-06-07T12:42:22.660Z,27.90
2019-06-07T12:44:52.464Z,28.00
2019-06-07T12:47:23.269Z,28.20
2019-06-07T12:49:52.993Z,28.30
2019-06-07T12:52:23.466Z,28.50
2019-06-07T12:54:54.339Z,28.50
2019-06-07T12:57:24.268Z,28.60
2019-06-07T12:59:54.024Z,28.60
2019-06-07T13:02:25.405Z,28.80
2019-06-07T13:04:55.359Z,28.70
2019-06-07T13:07:24.980Z,28.30
2019-06-07T13:09:54.648Z,28.10
2019-06-07T13:12:24.404Z,28.00
2019-06-07T13:14:54.166Z,28.10
2019-06-07T13:17:24.162Z,28.20
2019-06-07T13:19:53.899Z,28.20
2019-06-07T13:22:24.417Z,28.00
2019-06-07T13:24:54.135Z,27.90
2019-06-07T13:27:25.412Z,27.90
2019-06-07T13:29:55.006Z,28.00
2019-06-07T13:32:24.759Z,28.10
2019-06-07T13:34:54.495Z,28.20
2019-06-07T13:37:25.382Z,28.50
2019-06-07T13:39:55.255Z,28.70
2019-06-07T13:42:24.884Z,28.90
2019-06-07T13:44:54.692Z,29.00
2019-06-07T13:47:25.335Z,29.10
2019-06-07T13:49:55.516Z,29.20
2019-06-07T13:52:25.468Z,29.30
2019-06-07T13:54:55.232Z,29.40
2019-06-07T13:57:26.063Z,29.40
2019-06-07T13:59:55.735Z,29.50
2019-06-07T14:02:26.189Z,29.50
2019-06-07T14:04:56.892Z,29.50
2019-06-07T14:07:28.608Z,29.60
2019-06-07T14:09:58.418Z,29.60
2019-06-07T14:12:28.077Z,29.70
2019-06-07T14:14:57.773Z,29.70
2019-06-07T14:17:28.228Z,29.50
2019-06-07T14:19:59.767Z,29.30
2019-06-07T14:22:31.084Z,29.20
2019-06-07T14:25:00.934Z,29.10
2019-06-07T14:27:31.897Z,29.10
2019-06-07T14:30:01.802Z,29.00
2019-06-07T14:32:32.742Z,29.10
2019-06-07T14:35:02.796Z,29.00
2019-06-07T14:37:33.071Z,28.90
2019-06-07T14:40:03.178Z,28.80
2019-06-07T14:42:33.447Z,28.80
2019-06-07T14:45:06.104Z,28.80
2019-06-07T14:47:35.168Z,28.80
2019-06-07T14:50:08.277Z,28.70
2019-06-07T14:52:38.104Z,28.60
2019-06-07T14:55:09.444Z,28.50
2019-06-07T14:57:39.473Z,28.40
2019-06-07T15:00:14.743Z,28.50
2019-06-07T15:02:44.482Z,28.50
2019-06-07T15:05:15.786Z,28.30
2019-06-07T15:07:45.543Z,28.30
2019-06-07T15:10:15.354Z,28.20
2019-06-07T15:12:45.286Z,28.30
2019-06-07T15:15:15.216Z,28.30
2019-06-07T15:17:44.948Z,28.30
2019-06-07T15:20:15.310Z,28.40
2019-06-07T15:22:45.104Z,28.20
2019-06-07T15:25:15.051Z,28.20
2019-06-07T15:27:44.706Z,28.10
2019-06-07T15:30:15.839Z,28.00
2019-06-07T15:32:45.576Z,28.00
2019-06-07T15:35:17.110Z,28.00
2019-06-07T15:37:46.801Z,27.90
2019-06-07T15:40:16.906Z,28.00
2019-06-07T15:42:52.826Z,28.00
2019-06-07T15:45:19.002Z,28.00
2019-06-07T15:47:48.703Z,27.90
2019-06-07T15:50:18.611Z,27.80
2019-06-07T15:52:48.342Z,27.80
2019-06-07T15:55:20.072Z,27.90
2019-06-07T15:57:49.829Z,27.80
2019-06-07T16:00:20.799Z,27.80
2019-06-07T16:02:52.436Z,27.70
2019-06-07T16:05:22.814Z,27.70
2019-06-07T16:07:52.676Z,27.70
2019-06-07T16:10:22.582Z,27.70
2019-06-07T16:13:00.050Z,27.70
2019-06-07T16:15:23.975Z,27.60
2019-06-07T16:17:53.669Z,27.50
2019-06-07T16:20:23.585Z,27.50
2019-06-07T16:22:53.440Z,27.50
2019-06-07T16:25:23.223Z,27.50
2019-06-07T16:27:52.985Z,27.40
2019-06-07T16:30:23.119Z,27.40
2019-06-07T16:32:52.853Z,27.40
2019-06-07T16:35:22.688Z,27.20
2019-06-07T16:37:52.748Z,27.20
2019-06-07T16:40:23.503Z,27.20
2019-06-07T16:42:53.406Z,27.20
2019-06-07T16:45:23.543Z,27.10
2019-06-07T16:47:53.339Z,27.10
2019-06-07T16:50:23.172Z,27.10
2019-06-07T16:52:52.999Z,27.00
2019-06-07T16:55:23.071Z,27.00
2019-06-07T16:57:52.848Z,26.90
2019-06-07T17:00:23.390Z,26.90
2019-06-07T17:02:53.049Z,26.90
2019-06-07T17:05:23.004Z,26.90
2019-06-07T17:07:52.686Z,26.80
2019-06-07T17:10:22.603Z,26.80
2019-06-07T17:12:52.256Z,26.80
2019-06-07T17:15:22.160Z,26.70
2019-06-07T17:17:51.935Z,26.70
2019-06-07T17:20:22.035Z,26.60
2019-06-07T17:22:51.736Z,26.60
2019-06-07T17:25:21.863Z,26.50
2019-06-07T17:27:51.613Z,26.50
2019-06-07T17:30:22.853Z,26.50
2019-06-07T17:32:59.003Z,26.40
2019-06-07T17:35:24.194Z,26.40
2019-06-07T17:37:54.023Z,26.40
2019-06-07T17:40:23.923Z,26.20
2019-06-07T17:42:53.753Z,26.10
2019-06-07T17:45:24.460Z,26.10
2019-06-07T17:47:54.146Z,26.10
2019-06-07T17:50:23.951Z,26.10
2019-06-07T17:52:53.776Z,26.10
2019-06-07T17:55:23.616Z,26.10
2019-06-07T17:57:53.455Z,26.00
2019-06-07T18:00:29.077Z,25.90
2019-06-07T18:02:56.347Z,25.80
2019-06-07T18:05:26.106Z,25.70
2019-06-07T18:07:58.212Z,25.70
2019-06-07T18:10:40.860Z,25.70
2019-06-07T18:13:10.728Z,25.60
2019-06-07T18:15:51.499Z,25.60
2019-06-07T18:18:20.556Z,25.60
2019-06-07T18:20:53.430Z,25.50
2019-06-07T18:23:22.708Z,25.50
2019-06-07T18:25:52.655Z,25.40
2019-06-07T18:28:22.524Z,25.40
2019-06-07T18:30:52.826Z,25.40
2019-06-07T18:33:22.664Z,25.30
2019-06-07T18:35:53.323Z,25.30
2019-06-07T18:38:23.083Z,25.30
2019-06-07T18:40:53.267Z,25.20
2019-06-07T18:43:23.036Z,25.20
2019-06-07T18:45:57.604Z,25.10
2019-06-07T18:48:27.333Z,25.10
2019-06-07T18:50:59.051Z,25.00
2019-06-07T18:53:29.017Z,25.00
2019-06-07T18:55:58.774Z,24.90
2019-06-07T18:58:28.442Z,24.90
2019-06-07T19:00:58.141Z,24.80
2019-06-07T19:03:27.936Z,24.80
2019-06-07T19:05:58.334Z,24.80
2019-06-07T19:08:28.183Z,24.70
2019-06-07T19:11:00.858Z,24.60
2019-06-07T19:13:30.665Z,24.60
2019-06-07T19:16:00.295Z,24.60
2019-06-07T19:18:30.035Z,24.60
2019-06-07T19:21:00.638Z,24.50
2019-06-07T19:23:31.117Z,24.50
2019-06-07T19:26:00.819Z,24.50
2019-06-07T19:28:31.947Z,24.40
2019-06-07T19:31:01.690Z,24.20
2019-06-07T19:33:31.456Z,23.60
2019-06-07T19:36:01.771Z,23.10
2019-06-07T19:38:31.703Z,22.80
2019-06-07T19:41:16.498Z,22.30
2019-06-07T19:43:34.932Z,22.00
2019-06-07T19:46:05.476Z,21.70
2019-06-07T19:48:35.111Z,21.50
2019-06-07T19:51:04.861Z,21.40
2019-06-07T19:53:34.622Z,21.40
2019-06-07T19:56:05.904Z,21.30
2019-06-07T19:58:35.612Z,21.30
2019-06-07T20:01:05.349Z,21.10
2019-06-07T20:03:35.181Z,20.90
2019-06-07T20:06:04.876Z,20.60
2019-06-07T20:08:34.551Z,20.50
2019-06-07T20:11:04.845Z,20.40
2019-06-07T20:13:34.641Z,20.20
2019-06-07T20:16:05.116Z,20.00
2019-06-07T20:18:34.785Z,20.00
2019-06-07T20:21:04.970Z,20.00
2019-06-07T20:23:34.750Z,20.00
2019-06-07T20:26:04.835Z,20.00
2019-06-07T20:28:34.604Z,20.00
2019-06-07T20:31:05.930Z,19.90
2019-06-07T20:33:35.971Z,19.80
2019-06-07T20:36:05.735Z,19.80
2019-06-07T20:38:35.542Z,19.90
2019-06-07T20:41:05.455Z,19.90
2019-06-07T20:43:35.271Z,19.90
2019-06-07T20:46:05.476Z,19.90
2019-06-07T20:48:36.348Z,19.70
2019-06-07T20:51:06.533Z,19.60
2019-06-07T20:53:36.360Z,19.60
2019-06-07T20:56:06.839Z,19.50
2019-06-07T20:58:36.781Z,19.40
2019-06-07T21:01:06.946Z,19.40
2019-06-07T21:03:36.727Z,19.20
2019-06-07T21:06:07.516Z,19.10
2019-06-07T21:08:37.272Z,19.10
2019-06-07T21:11:07.780Z,19.10
2019-06-07T21:13:37.600Z,19.10
2019-06-07T21:16:08.248Z,19.10
2019-06-07T21:18:38.060Z,19.00
2019-06-07T21:21:08.555Z,19.00
2019-06-07T21:23:38.374Z,19.00
2019-06-07T21:26:09.056Z,19.00
2019-06-07T21:28:39.861Z,19.00
2019-06-07T21:31:10.459Z,18.80
2019-06-07T21:33:40.202Z,18.70
2019-06-07T21:36:09.960Z,18.60
2019-06-07T21:38:39.704Z,18.50
2019-06-07T21:41:10.612Z,18.50
2019-06-07T21:43:40.489Z,18.50
2019-06-07T21:46:17.242Z,18.50
2019-06-07T21:48:41.644Z,18.50
2019-06-07T21:51:12.629Z,18.40
2019-06-07T21:53:42.452Z,18.30
2019-06-07T21:56:13.439Z,18.10
2019-06-07T21:58:43.239Z,18.10
2019-06-07T22:01:17.350Z,17.90
2019-06-07T22:03:47.127Z,18.00
2019-06-07T22:06:17.094Z,18.00
2019-06-07T22:08:47.000Z,18.10
2019-06-07T22:11:16.896Z,18.10
2019-06-07T22:13:46.493Z,18.10
2019-06-07T22:16:26.811Z,18.20
2019-06-07T22:18:47.572Z,18.20
2019-06-07T22:21:17.374Z,18.10
2019-06-07T22:23:47.286Z,17.90
2019-06-07T22:26:17.056Z,17.70
2019-06-07T22:28:46.823Z,17.60
2019-06-07T22:31:16.702Z,17.60
2019-06-07T22:33:46.468Z,17.60
2019-06-07T22:36:16.225Z,17.60
2019-06-07T22:38:46.012Z,17.50
2019-06-07T22:41:16.027Z,17.50
2019-06-07T22:43:45.763Z,17.50
2019-06-07T22:46:15.535Z,17.60
2019-06-07T22:48:45.226Z,17.60
2019-06-07T22:51:16.425Z,17.70
2019-06-07T22:53:46.397Z,17.70
2019-06-07T22:56:18.250Z,17.70
2019-06-07T22:58:48.073Z,17.60
2019-06-07T23:01:20.062Z,17.60
2019-06-07T23:03:49.414Z,17.60
2019-06-07T23:06:19.121Z,17.60
2019-06-07T23:08:48.895Z,17.60
2019-06-07T23:11:19.515Z,17.60
2019-06-07T23:13:49.253Z,17.60
2019-06-07T23:16:19.914Z,17.70
2019-06-07T23:18:52.047Z,17.70
2019-06-07T23:21:21.064Z,17.70
2019-06-07T23:23:52.195Z,17.80
2019-06-07T23:26:21.904Z,17.80
2019-06-07T23:28:53.204Z,17.80
2019-06-07T23:31:23.068Z,17.80
2019-06-07T23:33:52.965Z,17.70
2019-06-07T23:36:22.939Z,17.50
2019-06-07T23:38:52.804Z,17.20
2019-06-07T23:41:24.555Z,17.20
2019-06-07T23:43:57.251Z,17.10
2019-06-07T23:46:28.476Z,17.00
2019-06-07T23:49:01.151Z,16.90
2019-06-07T23:51:30.754Z,16.90
2019-06-07T23:54:00.554Z,16.80
2019-06-07T23:56:30.183Z,16.70
2019-06-07T23:59:01.366Z,16.70
